createdAt,value
2023-03-17T00:01:55.008Z,60.96
2023-03-17T00:04:24.593Z,62.36
2023-03-17T00:06:52.945Z,62.75
2023-03-17T00:09:22.313Z,63.43
2023-03-17T00:11:50.825Z,63.67
2023-03-17T00:14:19.702Z,60.64
2023-03-17T00:16:52.586Z,61.24
2023-03-17T00:19:28.840Z,60.92
2023-03-17T00:21:56.195Z,61.52
2023-03-17T00:24:23.608Z,62.01
2023-03-17T00:26:50.643Z,63.56
2023-03-17T00:29:17.757Z,63.81
2023-03-17T00:31:45.711Z,63.91
2023-03-17T00:34:18.352Z,63.86
2023-03-17T00:36:49.705Z,63.62
2023-03-17T00:39:17.286Z,64.38
2023-03-17T00:41:44.656Z,64.60
2023-03-17T00:44:12.281Z,64.88
2023-03-17T00:46:41.632Z,64.79
2023-03-17T00:49:19.366Z,64.43
2023-03-17T00:51:47.601Z,65.72
2023-03-17T00:54:15.683Z,64.61
2023-03-17T00:56:44.294Z,63.88
2023-03-17T00:59:19.464Z,64.62
2023-03-17T01:01:48.080Z,64.46
2023-03-17T01:04:15.765Z,64.84
2023-03-17T01:06:43.351Z,64.52
2023-03-17T01:09:18.601Z,64.46
2023-03-17T01:11:47.033Z,64.28
2023-03-17T01:14:15.309Z,65.12
2023-03-17T01:16:42.799Z,65.43
2023-03-17T01:19:13.125Z,64.88
2023-03-17T01:21:40.787Z,65.35
2023-03-17T01:24:08.360Z,65.02
2023-03-17T01:26:36.075Z,65.19
2023-03-17T01:29:04.787Z,65.79
2023-03-17T01:31:32.219Z,66.45
2023-03-17T01:33:59.837Z,66.89
2023-03-17T01:36:26.890Z,66.91
2023-03-17T01:38:53.923Z,66.98
2023-03-17T01:41:23.209Z,67.34
2023-03-17T01:43:50.281Z,67.76
2023-03-17T01:46:35.331Z,67.46
2023-03-17T01:49:24.992Z,68.34
2023-03-17T01:51:55.291Z,68.74
2023-03-17T01:54:45.210Z,69.01
2023-03-17T01:57:18.028Z,68.86
2023-03-17T01:59:55.956Z,68.65
2023-03-17T02:02:28.935Z,68.72
2023-03-17T02:04:57.882Z,68.87
2023-03-17T02:07:26.815Z,69.36
2023-03-17T02:09:56.062Z,69.79
2023-03-17T02:12:25.369Z,69.58
2023-03-17T02:14:52.921Z,69.82
2023-03-17T02:17:22.984Z,69.93
2023-03-17T02:19:50.545Z,70.60
2023-03-17T02:22:19.429Z,69.94
2023-03-17T02:24:57.071Z,69.06
2023-03-17T02:27:35.509Z,69.39
2023-03-17T02:30:06.382Z,69.91
2023-03-17T02:32:36.842Z,70.02
2023-03-17T02:35:07.152Z,69.02
2023-03-17T02:37:37.698Z,68.73
2023-03-17T02:40:07.201Z,68.80
2023-03-17T02:42:36.060Z,69.66
2023-03-17T02:45:07.269Z,70.04
2023-03-17T02:47:35.644Z,70.18
2023-03-17T02:50:04.759Z,70.26
2023-03-17T02:52:32.306Z,70.48
2023-03-17T02:54:59.810Z,70.72
2023-03-17T02:57:26.916Z,70.75
2023-03-17T02:59:54.025Z,70.39
2023-03-17T03:02:21.554Z,70.57
2023-03-17T03:04:48.748Z,70.98
2023-03-17T03:07:16.194Z,70.85
2023-03-17T03:09:43.708Z,70.68
2023-03-17T03:12:11.313Z,70.92
2023-03-17T03:14:38.435Z,71.24
2023-03-17T03:17:05.820Z,71.37
2023-03-17T03:19:32.969Z,72.06
2023-03-17T03:22:00.268Z,72.05
2023-03-17T03:24:27.974Z,71.80
2023-03-17T03:26:55.136Z,71.24
2023-03-17T03:29:22.215Z,71.22
2023-03-17T03:31:49.667Z,71.62
2023-03-17T03:34:16.746Z,72.20
2023-03-17T03:36:43.871Z,71.96
2023-03-17T03:39:14.197Z,71.47
2023-03-17T03:41:42.082Z,71.46
2023-03-17T03:44:09.196Z,71.78
2023-03-17T03:46:36.633Z,72.29
2023-03-17T03:49:03.788Z,72.49
2023-03-17T03:51:31.016Z,72.24
2023-03-17T03:53:58.429Z,72.41
2023-03-17T03:56:25.588Z,71.55
2023-03-17T03:58:52.722Z,71.03
2023-03-17T04:01:20.142Z,71.47
2023-03-17T04:03:47.539Z,71.86
2023-03-17T04:06:14.866Z,72.35
2023-03-17T04:08:42.056Z,71.07
2023-03-17T04:11:09.542Z,70.80
2023-03-17T04:13:36.590Z,71.20
2023-03-17T04:16:03.688Z,71.22
2023-03-17T04:18:31.736Z,71.40
2023-03-17T04:20:58.791Z,71.08
2023-03-17T04:23:25.895Z,70.94
2023-03-17T04:25:54.015Z,71.37
2023-03-17T04:28:22.504Z,71.70
2023-03-17T04:30:49.600Z,70.95
2023-03-17T04:33:17.254Z,70.54
2023-03-17T04:35:44.390Z,70.94
2023-03-17T04:38:14.627Z,71.04
2023-03-17T04:40:42.246Z,71.40
2023-03-17T04:43:10.331Z,71.38
2023-03-17T04:45:37.651Z,71.39
2023-03-17T04:48:05.904Z,71.22
2023-03-17T04:50:33.551Z,71.31
2023-03-17T04:53:00.813Z,70.95
2023-03-17T04:55:28.177Z,70.92
2023-03-17T04:57:55.168Z,71.14
2023-03-17T05:00:22.443Z,71.20
2023-03-17T05:02:49.747Z,71.25
2023-03-17T05:05:16.893Z,71.32
2023-03-17T05:07:44.871Z,71.34
2023-03-17T05:10:12.630Z,71.37
2023-03-17T05:12:39.816Z,70.85
2023-03-17T05:15:07.389Z,70.79
2023-03-17T05:17:34.817Z,70.89
2023-03-17T05:20:01.832Z,70.58
2023-03-17T05:22:28.878Z,69.76
2023-03-17T05:24:56.175Z,67.78
2023-03-17T05:27:23.296Z,65.89
2023-03-17T05:29:50.342Z,65.11
2023-03-17T05:32:18.358Z,62.86
2023-03-17T05:34:46.340Z,61.41
2023-03-17T05:37:14.152Z,61.06
2023-03-17T05:39:42.153Z,60.01
2023-03-17T05:42:09.472Z,59.83
2023-03-17T05:44:36.564Z,60.09
2023-03-17T05:47:03.981Z,59.34
2023-03-17T05:49:31.184Z,59.23
2023-03-17T05:51:58.840Z,60.30
2023-03-17T05:54:26.166Z,60.83
2023-03-17T05:56:53.163Z,60.56
2023-03-17T05:59:20.631Z,60.49
2023-03-17T06:01:47.902Z,60.56
2023-03-17T06:04:15.654Z,59.50
2023-03-17T06:06:42.762Z,55.31
2023-03-17T06:09:09.768Z,51.11
2023-03-17T06:11:38.201Z,48.94
2023-03-17T06:14:05.309Z,47.37
2023-03-17T06:16:33.281Z,45.52
2023-03-17T06:19:01.234Z,43.76
2023-03-17T06:21:28.423Z,44.18
2023-03-17T06:23:55.716Z,43.41
2023-03-17T06:26:23.046Z,43.14
2023-03-17T06:28:50.084Z,42.57
2023-03-17T06:31:17.947Z,42.01
2023-03-17T06:33:45.328Z,39.86
2023-03-17T06:36:12.413Z,39.00
2023-03-17T06:38:40.106Z,37.67
2023-03-17T06:41:07.554Z,36.48
2023-03-17T06:43:35.322Z,35.82
2023-03-17T06:46:02.430Z,36.03
2023-03-17T06:48:29.861Z,36.95
2023-03-17T06:50:57.204Z,36.19
2023-03-17T06:53:24.303Z,35.85
2023-03-17T06:55:51.661Z,34.73
2023-03-17T06:58:20.464Z,34.64
2023-03-17T07:00:48.997Z,34.00
2023-03-17T07:03:16.912Z,33.26
2023-03-17T07:05:43.947Z,32.89
2023-03-17T07:08:11.540Z,33.91
2023-03-17T07:10:43.466Z,32.82
2023-03-17T07:13:10.491Z,33.13
2023-03-17T07:15:38.311Z,32.00
2023-03-17T07:18:07.027Z,32.28
2023-03-17T07:20:34.215Z,32.30
2023-03-17T07:23:01.376Z,32.21
2023-03-17T07:25:28.963Z,30.88
2023-03-17T07:27:56.671Z,31.77
2023-03-17T07:30:23.688Z,31.84
2023-03-17T07:32:51.146Z,32.26
2023-03-17T07:35:19.250Z,32.47
2023-03-17T07:37:47.368Z,32.71
2023-03-17T07:40:14.773Z,32.88
2023-03-17T07:42:42.238Z,32.48
2023-03-17T07:45:10.042Z,32.76
2023-03-17T07:47:37.561Z,33.07
2023-03-17T07:50:05.900Z,32.08
2023-03-17T07:52:32.969Z,32.53
2023-03-17T07:55:00.353Z,32.02
2023-03-17T07:57:27.490Z,32.60
2023-03-17T07:59:54.730Z,32.05
2023-03-17T08:02:22.285Z,31.97
2023-03-17T08:04:50.541Z,33.14
2023-03-17T08:07:18.391Z,32.94
2023-03-17T08:09:46.511Z,33.07
2023-03-17T08:12:14.667Z,33.87
2023-03-17T08:14:41.745Z,32.95
2023-03-17T08:17:08.925Z,33.00
2023-03-17T08:19:36.458Z,33.11
2023-03-17T08:22:03.572Z,33.48
2023-03-17T08:24:30.897Z,33.40
2023-03-17T08:27:00.787Z,33.89
2023-03-17T08:29:29.033Z,34.00
2023-03-17T08:31:56.924Z,34.52
2023-03-17T08:34:24.695Z,34.35
2023-03-17T08:36:54.547Z,34.04
2023-03-17T08:39:21.585Z,34.01
2023-03-17T08:41:49.109Z,34.21
2023-03-17T08:44:16.589Z,35.42
2023-03-17T08:46:43.729Z,34.19
2023-03-17T08:49:12.686Z,34.47
2023-03-17T08:51:39.953Z,34.33
2023-03-17T08:54:07.908Z,34.01
2023-03-17T08:56:37.012Z,32.73
2023-03-17T08:59:06.031Z,32.66
2023-03-17T09:01:34.764Z,33.56
2023-03-17T09:04:02.841Z,32.51
2023-03-17T09:06:30.277Z,33.87
2023-03-17T09:08:57.379Z,34.53
2023-03-17T09:11:27.620Z,31.14
2023-03-17T09:13:55.654Z,31.76
2023-03-17T09:16:23.897Z,32.87
2023-03-17T09:18:51.862Z,31.56
2023-03-17T09:21:19.659Z,30.91
2023-03-17T09:23:46.996Z,30.98
2023-03-17T09:26:14.812Z,29.95
2023-03-17T09:28:45.090Z,30.90
2023-03-17T09:31:12.990Z,30.29
2023-03-17T09:33:41.818Z,31.63
2023-03-17T09:36:10.502Z,30.28
2023-03-17T09:38:38.549Z,29.43
2023-03-17T09:41:08.629Z,29.81
2023-03-17T09:44:02.808Z,30.98
2023-03-17T09:46:42.667Z,29.23
2023-03-17T09:49:20.650Z,28.61
2023-03-17T09:51:49.478Z,52.06
2023-03-17T09:54:25.995Z,32.18
2023-03-17T09:57:06.102Z,41.46
2023-03-17T09:59:42.000Z,31.37
2023-03-17T10:02:17.959Z,25.95
2023-03-17T10:04:46.290Z,25.37
2023-03-17T10:07:17.887Z,26.75
2023-03-17T10:10:02.985Z,27.72
2023-03-17T10:12:39.179Z,27.43
2023-03-17T10:15:18.513Z,27.87
2023-03-17T10:17:47.339Z,27.89
2023-03-17T10:20:21.799Z,27.59
2023-03-17T10:22:54.803Z,28.19
2023-03-17T10:25:34.376Z,27.80
2023-03-17T10:28:13.569Z,28.73
2023-03-17T10:30:41.166Z,29.85
2023-03-17T10:33:08.596Z,28.44
2023-03-17T10:35:39.453Z,28.56
2023-03-17T10:38:23.729Z,29.20
2023-03-17T10:41:02.984Z,29.42
2023-03-17T10:43:36.361Z,29.08
2023-03-17T10:46:06.781Z,29.87
2023-03-17T10:48:38.590Z,29.74
2023-03-17T10:51:09.781Z,28.04
2023-03-17T10:53:43.395Z,28.10
2023-03-17T10:56:23.536Z,27.89
2023-03-17T10:58:52.630Z,28.38
2023-03-17T11:01:29.738Z,29.35
2023-03-17T11:03:58.002Z,29.25
2023-03-17T11:06:37.053Z,29.11
2023-03-17T11:09:19.520Z,28.77
2023-03-17T11:11:50.164Z,28.66
2023-03-17T11:14:19.353Z,28.59
2023-03-17T11:16:53.362Z,28.90
2023-03-17T11:19:28.854Z,30.21
2023-03-17T11:22:24.880Z,29.63
2023-03-17T11:25:09.612Z,29.53
2023-03-17T11:28:08.034Z,28.73
2023-03-17T11:30:47.737Z,28.84
2023-03-17T11:33:49.913Z,29.73
2023-03-17T11:36:33.539Z,29.17
2023-03-17T11:39:08.939Z,29.75
2023-03-17T11:41:44.867Z,29.05
2023-03-17T11:44:50.796Z,28.64
2023-03-17T11:47:41.783Z,29.44
2023-03-17T11:50:29.001Z,29.84
2023-03-17T11:53:27.567Z,30.49
2023-03-17T11:56:06.261Z,29.97
2023-03-17T11:58:41.380Z,30.57
2023-03-17T12:01:16.026Z,29.90
2023-03-17T12:03:49.816Z,29.61
2023-03-17T12:06:23.382Z,29.09
2023-03-17T12:09:00.264Z,29.66
2023-03-17T12:11:35.850Z,29.00
2023-03-17T12:14:11.496Z,29.65
2023-03-17T12:16:49.484Z,30.22
2023-03-17T12:19:19.760Z,29.82
2023-03-17T12:21:53.085Z,28.41
2023-03-17T12:24:24.953Z,28.89
2023-03-17T12:27:00.534Z,30.12
2023-03-17T12:29:51.727Z,29.58
2023-03-17T12:32:29.519Z,29.31
2023-03-17T12:34:58.949Z,29.01
2023-03-17T12:37:28.293Z,29.12
2023-03-17T12:40:02.595Z,28.80
2023-03-17T12:42:58.249Z,28.75
2023-03-17T12:45:41.324Z,29.23
2023-03-17T12:48:36.881Z,29.51
2023-03-17T12:51:29.971Z,28.73
2023-03-17T12:53:59.575Z,29.47
2023-03-17T12:56:30.819Z,29.79
2023-03-17T12:59:08.681Z,30.27
2023-03-17T13:01:58.785Z,30.18
2023-03-17T13:04:31.308Z,29.35
2023-03-17T13:07:15.779Z,28.40
2023-03-17T13:09:53.410Z,29.12
2023-03-17T13:12:42.098Z,29.25
2023-03-17T13:15:21.447Z,28.30
2023-03-17T13:17:48.588Z,28.29
2023-03-17T13:20:37.825Z,28.14
2023-03-17T13:23:10.769Z,28.10
2023-03-17T13:25:38.300Z,28.91
2023-03-17T13:28:15.207Z,28.83
2023-03-17T13:30:56.017Z,29.22
2023-03-17T13:33:30.708Z,28.97
2023-03-17T13:36:30.570Z,30.05
2023-03-17T13:39:19.303Z,30.60
2023-03-17T13:42:18.715Z,29.87
2023-03-17T13:45:06.363Z,29.05
2023-03-17T13:47:38.354Z,30.77
2023-03-17T13:50:25.486Z,30.44
2023-03-17T13:52:57.636Z,29.92
2023-03-17T13:55:24.776Z,29.06
2023-03-17T13:58:16.454Z,29.36
2023-03-17T14:00:48.999Z,29.90
2023-03-17T14:03:34.126Z,29.29
2023-03-17T14:06:06.529Z,30.20
2023-03-17T14:08:37.512Z,30.23
2023-03-17T14:11:19.277Z,30.65
2023-03-17T14:14:36.640Z,31.15
2023-03-17T14:17:19.116Z,31.01
2023-03-17T14:20:22.371Z,30.45
2023-03-17T14:23:00.545Z,30.98
2023-03-17T14:25:36.596Z,30.83
2023-03-17T14:28:12.872Z,29.92
2023-03-17T14:30:40.373Z,29.91
2023-03-17T14:33:22.970Z,30.58
2023-03-17T14:35:53.141Z,31.35
2023-03-17T14:38:26.185Z,30.13
2023-03-17T14:41:21.178Z,30.57
2023-03-17T14:43:50.331Z,30.01
2023-03-17T14:46:30.678Z,31.00
2023-03-17T14:49:15.400Z,30.30
2023-03-17T14:51:43.446Z,30.02
2023-03-17T14:54:24.253Z,30.18
2023-03-17T14:57:02.343Z,30.42
2023-03-17T14:59:35.224Z,30.11
2023-03-17T15:02:23.208Z,30.29
2023-03-17T15:04:53.636Z,31.08
2023-03-17T15:07:38.396Z,30.69
2023-03-17T15:10:06.734Z,31.24
2023-03-17T15:12:34.517Z,30.57
2023-03-17T15:15:13.361Z,30.87
2023-03-17T15:17:40.734Z,30.49
2023-03-17T15:20:16.344Z,30.51
2023-03-17T15:22:49.546Z,31.11
2023-03-17T15:25:20.197Z,31.42
2023-03-17T15:27:48.285Z,31.87
2023-03-17T15:30:16.162Z,31.70
2023-03-17T15:32:43.785Z,31.32
2023-03-17T15:35:13.487Z,31.42
2023-03-17T15:37:43.041Z,31.42
2023-03-17T15:40:11.184Z,32.53
2023-03-17T15:42:39.689Z,31.93
2023-03-17T15:45:07.858Z,32.34
2023-03-17T15:47:39.977Z,32.81
2023-03-17T15:50:31.434Z,32.85
2023-03-17T15:52:59.031Z,32.58
2023-03-17T15:55:32.132Z,32.53
2023-03-17T15:58:00.396Z,32.90
2023-03-17T16:00:30.032Z,32.85
2023-03-17T16:03:02.112Z,33.14
2023-03-17T16:05:34.281Z,33.72
2023-03-17T16:08:02.315Z,33.55
2023-03-17T16:10:32.120Z,33.60
2023-03-17T16:12:59.700Z,33.95
2023-03-17T16:15:33.741Z,34.06
2023-03-17T16:18:04.298Z,34.68
2023-03-17T16:20:52.309Z,34.50
2023-03-17T16:23:23.713Z,35.26
2023-03-17T16:25:51.751Z,35.40
2023-03-17T16:28:23.877Z,35.57
2023-03-17T16:30:52.705Z,35.61
2023-03-17T16:33:24.217Z,35.26
2023-03-17T16:35:53.397Z,35.90
2023-03-17T16:38:25.514Z,36.43
2023-03-17T16:40:55.118Z,36.92
2023-03-17T16:43:30.950Z,37.22
2023-03-17T16:46:00.123Z,37.36
2023-03-17T16:48:27.380Z,37.76
2023-03-17T16:50:55.397Z,38.03
2023-03-17T16:53:23.624Z,38.29
2023-03-17T16:55:54.477Z,38.54
2023-03-17T16:58:23.280Z,38.55
2023-03-17T17:00:53.799Z,38.78
2023-03-17T17:03:21.080Z,39.04
2023-03-17T17:05:48.271Z,39.35
2023-03-17T17:08:15.847Z,39.89
2023-03-17T17:10:43.016Z,39.96
2023-03-17T17:13:12.078Z,40.08
2023-03-17T17:15:39.753Z,40.33
2023-03-17T17:18:11.392Z,40.54
2023-03-17T17:20:40.353Z,40.88
2023-03-17T17:23:12.205Z,41.15
2023-03-17T17:25:39.773Z,41.76
2023-03-17T17:28:07.591Z,42.09
2023-03-17T17:30:35.923Z,42.52
2023-03-17T17:33:04.014Z,42.76
2023-03-17T17:35:33.136Z,43.51
2023-03-17T17:38:02.530Z,44.13
2023-03-17T17:40:30.966Z,44.54
2023-03-17T17:42:58.376Z,44.81
2023-03-17T17:45:26.229Z,44.96
2023-03-17T17:47:53.447Z,45.24
2023-03-17T17:50:25.707Z,45.38
2023-03-17T17:52:53.534Z,45.52
2023-03-17T17:55:20.754Z,45.82
2023-03-17T17:57:48.070Z,46.16
2023-03-17T18:00:17.239Z,46.34
2023-03-17T18:02:45.428Z,46.69
2023-03-17T18:05:13.252Z,46.82
2023-03-17T18:07:40.950Z,47.15
2023-03-17T18:10:15.953Z,47.34
2023-03-17T18:12:43.194Z,47.56
2023-03-17T18:15:11.299Z,47.73
2023-03-17T18:17:38.552Z,47.83
2023-03-17T18:20:07.137Z,48.09
2023-03-17T18:22:35.058Z,48.31
2023-03-17T18:25:02.379Z,48.25
2023-03-17T18:27:29.499Z,48.25
2023-03-17T18:29:58.664Z,48.74
2023-03-17T18:32:27.874Z,49.01
2023-03-17T18:34:58.566Z,48.83
2023-03-17T18:37:26.256Z,49.26
2023-03-17T18:40:11.996Z,49.40
2023-03-17T18:42:41.607Z,49.41
2023-03-17T18:45:13.351Z,49.14
2023-03-17T18:47:41.896Z,49.28
2023-03-17T18:50:12.193Z,49.35
2023-03-17T18:52:41.191Z,49.44
2023-03-17T18:55:10.156Z,49.35
2023-03-17T18:57:37.660Z,49.48
2023-03-17T19:00:05.825Z,49.56
2023-03-17T19:02:33.390Z,49.65
2023-03-17T19:05:01.065Z,50.02
2023-03-17T19:07:28.309Z,50.14
2023-03-17T19:09:55.888Z,50.24
2023-03-17T19:12:23.893Z,50.34
2023-03-17T19:14:51.080Z,50.36
2023-03-17T19:17:18.526Z,50.67
2023-03-17T19:19:45.584Z,50.58
2023-03-17T19:22:12.918Z,50.12
2023-03-17T19:24:41.203Z,49.99
2023-03-17T19:27:08.774Z,50.93
2023-03-17T19:29:35.987Z,50.81
2023-03-17T19:32:03.886Z,50.70
2023-03-17T19:34:30.908Z,50.82
2023-03-17T19:36:57.956Z,50.89
2023-03-17T19:39:26.044Z,50.87
2023-03-17T19:41:55.207Z,50.87
2023-03-17T19:44:22.682Z,51.21
2023-03-17T19:46:51.155Z,51.48
2023-03-17T19:49:21.065Z,51.62
2023-03-17T19:51:49.127Z,52.22
2023-03-17T19:54:16.807Z,52.47
2023-03-17T19:56:44.349Z,52.27
2023-03-17T19:59:11.497Z,52.30
2023-03-17T20:01:38.987Z,52.57
2023-03-17T20:04:07.281Z,52.91
2023-03-17T20:06:34.724Z,52.52
2023-03-17T20:09:05.776Z,52.23
2023-03-17T20:11:34.096Z,52.73
2023-03-17T20:14:02.197Z,52.50
2023-03-17T20:16:33.496Z,52.36
2023-03-17T20:19:02.193Z,52.34
2023-03-17T20:21:29.547Z,52.04
2023-03-17T20:23:57.047Z,52.40
2023-03-17T20:26:24.588Z,52.40
2023-03-17T20:28:51.831Z,52.46
2023-03-17T20:31:19.342Z,52.67
2023-03-17T20:33:46.845Z,52.60
2023-03-17T20:36:14.190Z,52.13
2023-03-17T20:38:43.650Z,52.69
2023-03-17T20:41:17.224Z,52.32
2023-03-17T20:43:46.039Z,52.02
2023-03-17T20:46:19.531Z,51.67
2023-03-17T20:48:51.839Z,52.04
2023-03-17T20:51:20.008Z,51.92
2023-03-17T20:53:49.011Z,51.74
2023-03-17T20:56:19.723Z,51.96
2023-03-17T20:58:48.479Z,52.15
2023-03-17T21:01:20.715Z,52.18
2023-03-17T21:03:49.403Z,52.62
2023-03-17T21:06:17.579Z,52.43
2023-03-17T21:08:46.145Z,51.71
2023-03-17T21:11:17.867Z,51.80
2023-03-17T21:13:45.180Z,51.59
2023-03-17T21:16:18.891Z,51.34
2023-03-17T21:18:46.570Z,51.30
2023-03-17T21:21:14.234Z,52.33
2023-03-17T21:23:41.755Z,51.50
2023-03-17T21:26:09.644Z,52.26
2023-03-17T21:28:41.232Z,51.53
2023-03-17T21:31:10.134Z,51.85
2023-03-17T21:33:37.442Z,51.87
2023-03-17T21:36:05.720Z,51.87
2023-03-17T21:38:33.248Z,52.38
2023-03-17T21:41:37.866Z,52.29
2023-03-17T21:44:06.948Z,52.22
2023-03-17T21:46:33.983Z,52.94
2023-03-17T21:49:01.567Z,53.01
2023-03-17T21:51:29.650Z,52.53
2023-03-17T21:53:57.979Z,53.12
2023-03-17T21:56:25.207Z,52.64
2023-03-17T21:58:52.612Z,52.09
2023-03-17T22:01:21.744Z,52.29
2023-03-17T22:03:50.408Z,52.53
2023-03-17T22:06:18.763Z,52.19
2023-03-17T22:08:47.947Z,52.17
2023-03-17T22:11:18.533Z,52.17
2023-03-17T22:13:46.189Z,52.21
2023-03-17T22:16:14.920Z,52.10
2023-03-17T22:18:42.835Z,52.45
2023-03-17T22:21:10.905Z,52.74
2023-03-17T22:23:42.323Z,52.30
2023-03-17T22:26:16.709Z,52.70
2023-03-17T22:28:48.337Z,52.62
2023-03-17T22:31:24.379Z,52.45
2023-03-17T22:33:55.024Z,53.52
2023-03-17T22:36:23.704Z,52.37
2023-03-17T22:38:50.995Z,51.63
2023-03-17T22:41:21.798Z,51.27
2023-03-17T22:43:49.704Z,51.28
2023-03-17T22:46:17.573Z,51.13
2023-03-17T22:48:46.201Z,50.65
2023-03-17T22:51:16.960Z,50.92
2023-03-17T22:53:44.284Z,50.78
2023-03-17T22:56:12.783Z,50.56
2023-03-17T22:58:41.062Z,51.14
2023-03-17T23:01:08.875Z,50.88
2023-03-17T23:03:36.516Z,50.78
2023-03-17T23:06:05.492Z,50.90
2023-03-17T23:08:35.394Z,50.85
2023-03-17T23:11:05.701Z,50.65
2023-03-17T23:13:33.951Z,50.86
2023-03-17T23:16:02.966Z,50.89
2023-03-17T23:18:30.591Z,50.98
2023-03-17T23:20:58.845Z,50.81
2023-03-17T23:23:25.965Z,50.12
2023-03-17T23:25:53.795Z,50.22
2023-03-17T23:28:21.230Z,50.01
2023-03-17T23:30:48.364Z,50.11
2023-03-17T23:33:17.424Z,50.38
2023-03-17T23:35:46.146Z,50.58
2023-03-17T23:38:13.509Z,50.51
2023-03-17T23:40:41.271Z,50.57
2023-03-17T23:43:08.650Z,50.66
2023-03-17T23:45:35.738Z,50.61
2023-03-17T23:48:02.975Z,50.39
2023-03-17T23:50:31.889Z,50.82
2023-03-17T23:52:59.177Z,50.67
2023-03-17T23:55:26.340Z,51.08
2023-03-17T23:57:54.741Z,51.13
